Saint Lucie West, Florida
Current Conditions -  °F | °C
As of 12:26 PM on Saturday 22 Nov 2014 (Local Time) from KFPR Reporting Station
Overcast Overcast  
Wind Chill: 73°   Ceiling: 2400
Heat Index: 73°   Visibility: 9mi
Dew Point: 68°   Wind: 13mph
Humidity: 84%   Direction: 90°E
Pressure: 30.2"   Gusts: 22mph
Location:  27.3209°N, 80.3507°W
Report Text: KFPR 221726Z 09011G19KT 9SM BKN024 OVC036 23/20 A3020 RMK AO2 RAE22 P0001 T02280200
Loading
Personal Weather Stations






























Interactive Weather Map New forecast layout! Learn more

10-Day Weather Forecast

Advertisements
Track Severe Weather on mobile